createdAt,value
2019-02-28T00:04:11.651Z,101623.38
2019-02-28T00:09:22.124Z,101620.05
2019-02-28T00:14:33.803Z,101613.31
2019-02-28T00:19:48.332Z,101602.63
2019-02-28T00:25:01.099Z,101609.25
2019-02-28T00:30:07.590Z,101610.35
2019-02-28T00:35:18.245Z,101607.05
2019-02-28T00:40:31.150Z,101597.28
2019-02-28T00:45:40.269Z,101586.58
2019-02-28T00:50:54.648Z,101586.69
2019-02-28T00:56:03.977Z,101595.48
2019-02-28T01:01:17.549Z,101583.45
2019-02-28T01:06:27.471Z,101577.50
2019-02-28T01:11:40.261Z,101570.72
2019-02-28T01:16:50.221Z,101573.47
2019-02-28T01:22:03.022Z,101569.45
2019-02-28T01:27:17.324Z,101560.08
2019-02-28T01:32:28.593Z,101545.48
2019-02-28T01:37:44.136Z,101540.05
2019-02-28T01:42:57.737Z,101537.09
2019-02-28T01:48:07.911Z,101535.45
2019-02-28T01:53:19.567Z,101523.37
2019-02-28T01:58:25.233Z,101518.63
2019-02-28T02:03:40.721Z,101510.45
2019-02-28T02:08:52.522Z,101508.77
2019-02-28T02:13:59.847Z,101502.25
2019-02-28T02:19:09.481Z,101503.25
2019-02-28T02:24:17.510Z,101518.93
2019-02-28T02:29:27.629Z,101509.09
2019-02-28T02:34:40.541Z,101503.73
2019-02-28T02:39:51.769Z,101499.09
2019-02-28T02:45:04.967Z,101491.27
2019-02-28T02:50:11.595Z,101486.12
2019-02-28T02:55:27.731Z,101493.15
2019-02-28T03:00:30.015Z,101491.52
2019-02-28T03:05:41.652Z,101479.62
2019-02-28T03:10:53.014Z,101479.62
2019-02-28T03:16:03.058Z,101472.11
2019-02-28T03:21:14.973Z,101466.16
2019-02-28T03:26:28.141Z,101451.42
2019-02-28T03:31:39.243Z,101452.67
2019-02-28T03:36:55.376Z,101451.52
2019-02-28T03:41:56.897Z,101452.16
2019-02-28T03:47:08.905Z,101446.87
2019-02-28T03:52:17.898Z,101438.86
2019-02-28T03:57:29.347Z,101438.86
2019-02-28T04:02:39.710Z,101435.42
2019-02-28T04:07:53.803Z,101436.72
2019-02-28T04:13:01.877Z,101447.13
2019-02-28T04:18:12.749Z,101444.92
2019-02-28T04:23:22.648Z,101439.78
2019-02-28T04:28:29.678Z,101428.72
2019-02-28T04:33:45.673Z,101421.41
2019-02-28T04:38:57.407Z,101413.20
2019-02-28T04:44:05.486Z,101412.81
2019-02-28T04:49:13.580Z,101407.57
2019-02-28T04:54:27.921Z,101411.19
2019-02-28T04:59:34.407Z,101407.70
2019-02-28T05:04:43.115Z,101398.14
2019-02-28T05:09:54.095Z,101408.65
2019-02-28T05:15:02.517Z,101400.91
2019-02-28T05:20:11.898Z,101398.94
2019-02-28T05:25:19.401Z,101390.31
2019-02-28T05:30:42.429Z,101386.41
2019-02-28T05:35:53.540Z,101385.16
2019-02-28T05:41:03.619Z,101385.09
2019-02-28T05:46:13.711Z,101364.42
2019-02-28T05:51:24.862Z,101364.42
2019-02-28T05:56:34.073Z,101352.27
2019-02-28T06:01:47.099Z,101365.27
2019-02-28T06:06:56.615Z,101352.67
2019-02-28T06:12:03.346Z,101352.67
2019-02-28T06:17:20.630Z,101354.42
2019-02-28T06:22:36.058Z,101368.31
2019-02-28T06:27:48.905Z,101363.62
2019-02-28T06:32:59.158Z,101385.87
2019-02-28T06:38:09.076Z,101382.38
2019-02-28T06:43:19.600Z,101372.37
2019-02-28T06:48:34.954Z,101374.48
2019-02-28T06:53:43.568Z,101383.52
2019-02-28T06:58:55.687Z,101383.01
2019-02-28T07:04:04.873Z,101384.70
2019-02-28T07:09:14.417Z,101380.73
2019-02-28T07:14:27.079Z,101382.72
2019-02-28T07:19:37.161Z,101367.02
2019-02-28T07:24:47.040Z,101367.02
2019-02-28T07:29:57.125Z,101382.80
2019-02-28T07:35:04.499Z,101384.67
2019-02-28T07:40:16.214Z,101381.02
2019-02-28T07:45:22.933Z,101381.26
2019-02-28T07:50:30.466Z,101380.05
2019-02-28T07:55:41.541Z,101376.98
2019-02-28T08:00:52.620Z,101377.61
2019-02-28T08:06:04.427Z,101388.58
2019-02-28T08:11:11.636Z,101378.69
2019-02-28T08:16:24.270Z,101380.23
2019-02-28T08:21:33.699Z,101386.56
2019-02-28T08:26:43.733Z,101395.58
2019-02-28T08:31:51.302Z,101386.07
2019-02-28T08:37:04.783Z,101377.39
2019-02-28T08:42:13.934Z,101389.98
2019-02-28T08:47:21.982Z,101388.94
2019-02-28T08:52:31.823Z,101364.77
2019-02-28T08:57:43.606Z,101357.45
2019-02-28T09:02:53.871Z,101354.33
2019-02-28T09:08:02.142Z,101340.97
2019-02-28T09:13:12.011Z,101356.53
2019-02-28T09:18:20.295Z,101337.64
2019-02-28T09:23:30.103Z,101321.02
2019-02-28T09:28:44.449Z,101333.41
2019-02-28T09:33:55.426Z,101334.14
2019-02-28T09:39:03.889Z,101357.19
2019-02-28T09:44:18.408Z,101341.50
2019-02-28T09:49:28.458Z,101342.23
2019-02-28T09:54:39.569Z,101354.31
2019-02-28T09:59:48.518Z,101337.48
2019-02-28T10:04:58.426Z,101343.13
2019-02-28T10:10:10.948Z,101361.65
2019-02-28T10:15:27.047Z,101372.08
2019-02-28T10:20:36.091Z,101359.45
2019-02-28T10:25:46.022Z,101351.98
2019-02-28T10:30:54.172Z,101349.52
2019-02-28T10:36:01.400Z,101361.19
2019-02-28T10:41:11.679Z,101368.17
2019-02-28T10:46:20.299Z,101360.02
2019-02-28T10:51:25.991Z,101362.87
2019-02-28T10:56:39.125Z,101360.39
2019-02-28T11:01:48.072Z,101370.02
2019-02-28T11:06:59.350Z,101351.55
2019-02-28T11:12:07.980Z,101338.83
2019-02-28T11:17:16.997Z,101328.98
2019-02-28T11:22:52.330Z,101335.62
2019-02-28T11:28:04.085Z,101330.10
2019-02-28T11:33:12.126Z,101336.36
2019-02-28T11:38:21.937Z,101340.66
2019-02-28T11:43:37.517Z,101337.60
2019-02-28T11:48:42.186Z,101330.77
2019-02-28T11:53:51.498Z,101336.25
2019-02-28T11:59:08.036Z,101326.91
2019-02-28T12:04:16.199Z,101323.47
2019-02-28T12:09:25.962Z,101325.11
2019-02-28T12:14:36.203Z,101321.92
2019-02-28T12:19:50.682Z,101315.14
2019-02-28T12:25:04.501Z,101303.88
2019-02-28T12:30:21.931Z,101303.09
2019-02-28T12:35:36.250Z,101298.66
2019-02-28T12:40:45.609Z,101288.97
2019-02-28T12:45:53.648Z,101290.43
2019-02-28T12:51:05.358Z,101294.16
2019-02-28T12:56:16.264Z,101295.97
2019-02-28T13:01:33.090Z,101295.55
2019-02-28T13:06:41.383Z,101300.06
2019-02-28T13:11:55.562Z,101300.77
2019-02-28T13:17:06.692Z,101290.95
2019-02-28T13:22:18.885Z,101284.05
2019-02-28T13:27:25.861Z,101290.34
2019-02-28T13:32:40.260Z,101291.59
2019-02-28T13:37:54.055Z,101287.74
2019-02-28T13:43:07.467Z,101303.70
2019-02-28T13:48:25.746Z,101306.66
2019-02-28T13:53:27.139Z,101302.70
2019-02-28T13:58:37.193Z,101287.45
2019-02-28T14:03:49.380Z,101277.90
2019-02-28T14:08:59.111Z,101288.86
2019-02-28T14:14:08.022Z,101288.67
2019-02-28T14:19:20.402Z,101278.23
2019-02-28T14:24:30.852Z,101281.45
2019-02-28T14:29:38.309Z,101276.41
2019-02-28T14:34:49.934Z,101269.91
2019-02-28T14:40:01.485Z,101275.83
2019-02-28T14:45:14.283Z,101266.70
2019-02-28T14:50:24.035Z,101272.41
2019-02-28T14:55:37.475Z,101257.11
2019-02-28T15:00:45.524Z,101252.77
2019-02-28T15:05:56.175Z,101249.24
2019-02-28T15:11:06.577Z,101244.86
2019-02-28T15:16:14.508Z,101238.58
2019-02-28T15:21:24.283Z,101232.02
2019-02-28T15:26:33.247Z,101232.77
2019-02-28T15:31:48.294Z,101234.59
2019-02-28T15:36:59.324Z,101230.22
2019-02-28T15:42:10.820Z,101223.92
2019-02-28T15:47:23.167Z,101223.92
2019-02-28T15:52:31.347Z,101208.29
2019-02-28T15:57:43.811Z,101199.56
2019-02-28T16:02:58.117Z,101208.70
2019-02-28T16:08:10.487Z,101205.28
2019-02-28T16:13:22.702Z,101202.25
2019-02-28T16:18:32.294Z,101202.66
2019-02-28T16:23:46.596Z,101193.04
2019-02-28T16:28:59.961Z,101192.66
2019-02-28T16:34:10.597Z,101194.97
2019-02-28T16:39:20.456Z,101197.22
2019-02-28T16:44:30.776Z,101194.59
2019-02-28T16:49:41.441Z,101194.95
2019-02-28T16:54:50.245Z,101189.42
2019-02-28T16:59:58.679Z,101193.69
2019-02-28T17:05:07.256Z,101202.83
2019-02-28T17:10:17.415Z,101192.79
2019-02-28T17:15:35.504Z,101193.95
2019-02-28T17:21:01.333Z,101194.41
2019-02-28T17:26:12.962Z,101187.77
2019-02-28T17:31:52.035Z,101191.33
2019-02-28T17:37:00.286Z,101181.72
2019-02-28T17:42:08.806Z,101170.80
2019-02-28T17:48:05.287Z,101164.56
2019-02-28T17:53:41.971Z,101163.72
2019-02-28T17:59:36.046Z,101151.30
2019-02-28T18:05:29.714Z,101158.90
2019-02-28T18:11:26.692Z,101165.31
2019-02-28T18:17:02.178Z,101157.20
2019-02-28T18:22:39.885Z,101156.22
2019-02-28T18:28:11.405Z,101158.15
2019-02-28T18:33:27.752Z,101145.97
2019-02-28T18:38:37.506Z,101143.02
2019-02-28T18:43:46.349Z,101131.28
2019-02-28T18:48:57.863Z,101129.13
2019-02-28T18:54:10.373Z,101118.17
2019-02-28T18:59:21.974Z,101112.17
2019-02-28T19:04:30.251Z,101112.22
2019-02-28T19:09:40.068Z,101100.92
2019-02-28T19:14:50.662Z,101090.33
2019-02-28T19:20:03.177Z,101086.82
2019-02-28T19:25:16.824Z,101084.66
2019-02-28T19:30:29.254Z,101086.02
2019-02-28T19:35:39.055Z,101078.75
2019-02-28T19:40:50.643Z,101072.48
2019-02-28T19:46:00.715Z,101069.19
2019-02-28T19:51:11.818Z,101071.53
2019-02-28T19:56:28.875Z,101067.59
2019-02-28T20:01:38.689Z,101059.06
2019-02-28T20:06:48.122Z,101063.39
2019-02-28T20:11:56.279Z,101062.95
2019-02-28T20:17:07.910Z,101065.92
2019-02-28T20:22:15.140Z,101065.92
2019-02-28T20:27:24.216Z,101058.56
2019-02-28T20:32:37.637Z,101058.69
2019-02-28T20:37:47.667Z,101053.32
2019-02-28T20:42:56.088Z,101053.86
2019-02-28T20:48:07.699Z,101051.82
2019-02-28T20:53:16.610Z,101055.17
2019-02-28T20:58:24.328Z,101050.02
2019-02-28T21:03:35.927Z,101047.70
2019-02-28T21:08:47.045Z,101055.17
2019-02-28T21:13:55.964Z,101048.14
2019-02-28T21:19:03.735Z,101041.93
2019-02-28T21:24:16.430Z,101037.48
2019-02-28T21:29:27.151Z,101037.36
2019-02-28T21:34:42.633Z,101030.02
2019-02-28T21:39:57.005Z,101033.94
2019-02-28T21:45:09.542Z,101031.28
2019-02-28T21:50:19.113Z,101028.46
2019-02-28T21:55:28.835Z,101023.73
2019-02-28T22:00:38.660Z,101013.96
2019-02-28T22:05:46.129Z,101005.69
2019-02-28T22:10:58.403Z,101002.69
2019-02-28T22:16:16.100Z,100998.34
2019-02-28T22:21:25.939Z,100996.94
2019-02-28T22:26:34.910Z,100995.11
2019-02-28T22:31:57.768Z,100989.80
2019-02-28T22:37:05.966Z,100992.17
2019-02-28T22:42:22.636Z,100994.28
2019-02-28T22:47:30.152Z,100981.07
2019-02-28T22:52:39.753Z,100990.66
2019-02-28T22:57:49.667Z,100985.80
2019-02-28T23:03:03.080Z,100981.36
2019-02-28T23:08:18.251Z,100975.32
2019-02-28T23:13:24.605Z,100970.45
2019-02-28T23:18:37.945Z,100970.28
2019-02-28T23:23:51.311Z,100958.78
2019-02-28T23:29:25.904Z,100955.23
2019-02-28T23:34:45.717Z,100944.77
2019-02-28T23:39:57.739Z,100943.07
2019-02-28T23:45:06.816Z,100941.39
2019-02-28T23:50:16.148Z,100934.34
2019-02-28T23:55:26.436Z,100930.80
